Time;durP1;ratioP1;P1;durP2;ratioP2;P2;SDS_P1;SDS_P2;PMS_P1;PMS_P2;Temp;Humidity;BMP_temperature;BMP_pressure;BME280_temperature;BME280_humidity;BME280_pressure;Samples;Min_cycle;Max_cycle;Signal;HPM_P1;HPM_P2
2023/01/05 00:01:30;;;;;;;4.50;3.97;;;7.20;99.90;;;;;;5136821;27;20144;-80
2023/01/05 00:03:55;;;;;;;5.30;4.00;;;7.20;99.90;;;;;;5136773;27;20060;-79
2023/01/05 00:06:21;;;;;;;7.38;5.47;;;7.20;99.90;;;;;;5136770;27;20024;-80
2023/01/05 00:08:46;;;;;;;7.32;5.03;;;7.20;99.90;;;;;;5135474;27;20027;-79
2023/01/05 00:22:31;;;;;;;5.78;4.30;;;7.20;99.90;;;;;;5032288;28;20143;-79
2023/01/05 00:25:08;;;;;;;7.05;5.70;;;7.20;99.90;;;;;;5032279;28;20025;-79
2023/01/05 00:27:34;;;;;;;4.15;3.60;;;7.20;99.90;;;;;;5031059;28;20051;-80
2023/01/05 00:30:00;;;;;;;4.35;3.50;;;7.20;99.90;;;;;;5030869;28;20374;-79
2023/01/05 00:32:26;;;;;;;4.20;3.53;;;7.20;99.90;;;;;;5032124;28;20025;-80
2023/01/05 00:34:56;;;;;;;5.35;4.28;;;7.20;99.90;;;;;;5030767;28;20029;-81
2023/01/05 00:37:24;;;;;;;7.10;5.07;;;7.20;99.90;;;;;;5030744;28;20021;-79
2023/01/05 00:39:49;;;;;;;6.40;4.40;;;7.20;99.90;;;;;;5047394;28;20026;-79
2023/01/05 00:42:15;;;;;;;4.03;3.60;;;7.10;99.90;;;;;;5131331;27;20042;-79
2023/01/05 00:44:41;;;;;;;5.00;4.03;;;7.20;99.90;;;;;;5155472;27;20015;-81
2023/01/05 00:47:06;;;;;;;7.70;4.28;;;7.20;99.90;;;;;;5156783;27;20030;-80
2023/01/05 00:49:32;;;;;;;6.72;4.80;;;7.20;99.90;;;;;;5155265;27;20148;-80
2023/01/05 00:51:57;;;;;;;5.30;4.40;;;7.10;99.90;;;;;;5156729;27;20027;-80
2023/01/05 00:54:23;;;;;;;6.65;4.93;;;7.10;99.90;;;;;;5154522;27;20110;-79
2023/01/05 00:56:49;;;;;;;5.45;4.53;;;7.20;99.90;;;;;;5155136;27;20038;-79
2023/01/05 00:59:15;;;;;;;5.88;4.55;;;7.10;99.90;;;;;;5155247;27;20026;-79
2023/01/05 01:01:44;;;;;;;6.18;4.82;;;7.20;99.90;;;;;;5154855;27;20041;-80
2023/01/05 01:04:09;;;;;;;6.95;4.78;;;7.20;99.90;;;;;;5156476;27;20026;-80
2023/01/05 01:06:35;;;;;;;9.45;4.68;;;7.10;99.90;;;;;;5156273;27;20102;-79
2023/01/05 01:09:00;;;;;;;6.00;4.38;;;7.10;99.90;;;;;;5156553;27;20141;-80
2023/01/05 01:11:26;;;;;;;6.15;4.05;;;7.20;99.90;;;;;;5154901;27;20391;-79
2023/01/05 01:13:51;;;;;;;6.50;4.55;;;7.20;99.90;;;;;;5156205;27;20043;-79
2023/01/05 01:16:17;;;;;;;5.00;4.22;;;7.20;99.90;;;;;;5156192;27;20018;-81
2023/01/05 01:18:43;;;;;;;6.05;3.80;;;7.20;99.90;;;;;;5156124;27;20057;-81
2023/01/05 01:21:08;;;;;;;4.55;3.70;;;7.20;99.90;;;;;;5154641;27;20399;-79
2023/01/05 01:23:36;;;;;;;5.60;4.32;;;7.20;99.90;;;;;;5154767;27;20015;-78
2023/01/05 01:26:07;;;;;;;5.03;3.97;;;7.30;99.90;;;;;;5156013;27;20486;-81
2023/01/05 01:28:33;;;;;;;4.00;3.38;;;7.20;99.90;;;;;;5156056;27;20050;-79
2023/01/05 01:30:58;;;;;;;4.43;3.40;;;7.20;99.90;;;;;;5154584;27;20379;-79
2023/01/05 01:33:24;;;;;;;4.70;3.55;;;7.20;99.90;;;;;;5154495;27;20021;-80
2023/01/05 01:35:50;;;;;;;4.40;3.65;;;7.10;99.90;;;;;;5154550;27;20061;-79
2023/01/05 01:38:15;;;;;;;4.82;3.58;;;7.10;99.90;;;;;;5154589;27;20016;-79
2023/01/05 01:40:43;;;;;;;5.28;4.35;;;7.10;99.90;;;;;;5138347;27;20100;-79
2023/01/05 01:43:17;;;;;;;5.45;4.32;;;7.10;99.90;;;;;;5050754;28;20052;-78
2023/01/05 01:45:43;;;;;;;4.57;4.00;;;7.00;99.90;;;;;;5050819;28;20057;-78
2023/01/05 01:48:13;;;;;;;4.10;3.70;;;7.00;99.90;;;;;;5050791;28;20477;-80
2023/01/05 01:50:52;;;;;;;5.18;4.68;;;7.00;99.90;;;;;;5049445;28;20031;-79
2023/01/05 01:53:33;;;;;;;6.28;4.22;;;7.00;99.90;;;;;;5049554;28;20022;-80
2023/01/05 01:56:02;;;;;;;5.55;4.63;;;6.90;99.90;;;;;;5049389;28;20103;-81
2023/01/05 01:58:30;;;;;;;5.70;4.45;;;6.90;99.90;;;;;;5049506;28;20025;-79
2023/01/05 02:00:58;;;;;;;6.75;5.38;;;6.90;99.90;;;;;;5049317;28;20469;-81
2023/01/05 02:03:24;;;;;;;6.60;4.70;;;6.90;99.90;;;;;;5049597;28;20131;-80
2023/01/05 02:05:50;;;;;;;7.20;5.03;;;6.90;99.90;;;;;;5050283;28;20052;-79
2023/01/05 02:08:24;;;;;;;7.22;5.90;;;6.90;99.90;;;;;;5050491;28;20490;-80
2023/01/05 02:11:42;;;;;;;8.52;5.55;;;6.90;99.90;;;;;;5050642;28;20032;-78
2023/01/05 02:14:26;;;;;;;7.20;5.85;;;6.90;99.90;;;;;;5071381;28;20029;-80
2023/01/05 02:17:11;;;;;;;7.55;5.72;;;6.90;99.90;;;;;;5049100;28;20031;-79
2023/01/05 02:19:55;;;;;;;9.18;5.35;;;6.90;99.90;;;;;;5050543;28;20081;-79
2023/01/05 02:22:58;;;;;;;7.03;5.72;;;6.90;99.90;;;;;;5048980;28;20064;-80
2023/01/05 02:25:45;;;;;;;9.32;5.55;;;6.80;99.90;;;;;;5050414;28;20029;-79
2023/01/05 02:28:32;;;;;;;5.63;4.55;;;6.80;99.90;;;;;;5050243;28;20029;-80
2023/01/05 02:31:45;;;;;;;5.40;4.47;;;6.80;99.90;;;;;;5048947;28;20053;-78
2023/01/05 02:34:35;;;;;;;5.35;4.70;;;6.80;99.90;;;;;;5054247;28;20102;-79
2023/01/05 02:37:13;;;;;;;5.80;4.18;;;6.80;99.90;;;;;;5054237;28;20619;-79
2023/01/05 02:39:58;;;;;;;4.63;4.15;;;6.90;99.90;;;;;;5049754;28;20109;-79
2023/01/05 02:42:26;;;;;;;6.28;4.38;;;6.90;99.90;;;;;;5141876;27;20484;-79
2023/01/05 02:44:52;;;;;;;5.30;4.03;;;6.90;99.90;;;;;;5154997;27;20098;-81
2023/01/05 02:47:23;;;;;;;4.10;3.80;;;6.90;99.90;;;;;;5153479;27;20049;-79
2023/01/05 02:49:58;;;;;;;3.92;3.53;;;6.90;99.90;;;;;;5155242;27;20361;-80
2023/01/05 02:52:24;;;;;;;5.20;3.42;;;7.00;99.90;;;;;;5153345;27;20027;-79
2023/01/05 02:54:56;;;;;;;4.40;3.53;;;7.00;99.90;;;;;;5153449;27;20052;-80
2023/01/05 02:57:46;;;;;;;3.28;2.97;;;7.10;99.90;;;;;;5153309;27;20034;-79
2023/01/05 03:00:16;;;;;;;3.70;2.65;;;7.10;99.90;;;;;;5153431;27;20094;-80
2023/01/05 03:02:44;;;;;;;4.28;3.20;;;7.20;99.90;;;;;;5154520;27;20034;-81
2023/01/05 03:05:20;;;;;;;5.55;3.67;;;7.20;99.90;;;;;;5153292;27;20039;-79
2023/01/05 03:07:47;;;;;;;3.53;3.22;;;7.20;99.90;;;;;;5154787;27;20378;-79
2023/01/05 03:16:10;;;;;;;3.72;3.15;;;7.20;99.90;;;;;;5111283;28;20120;-81
2023/01/05 03:19:34;;;;;;;4.50;3.35;;;7.20;99.90;;;;;;5112871;28;20619;-79
2023/01/05 03:21:24;;;;;;;5.15;3.00;;;7.30;99.90;;;;;;5142458;27;20045;-81
2023/01/05 03:37:48;;;;;;;3.50;3.20;;;7.20;99.90;;;;;;5158323;27;20022;-80
2023/01/05 03:40:32;;;;;;;2.75;2.50;;;7.10;99.90;;;;;;5157032;27;20018;-79
2023/01/05 03:42:59;;;;;;;2.88;2.65;;;7.10;99.90;;;;;;5051328;28;20413;-80
2023/01/05 03:45:33;;;;;;;3.58;2.70;;;7.10;99.90;;;;;;5052897;28;20025;-80
2023/01/05 03:47:59;;;;;;;3.97;2.75;;;7.10;99.90;;;;;;5052735;28;20477;-78
2023/01/05 03:50:25;;;;;;;4.13;3.28;;;7.10;99.90;;;;;;5052745;28;20029;-78
2023/01/05 03:52:50;;;;;;;3.47;3.00;;;7.10;99.90;;;;;;5051333;28;20119;-78
2023/01/05 03:55:16;;;;;;;3.65;3.25;;;7.10;99.90;;;;;;5052706;28;20027;-80
2023/01/05 03:57:41;;;;;;;2.85;2.65;;;7.10;99.90;;;;;;5052475;28;20112;-81
2023/01/05 04:00:08;;;;;;;6.05;3.20;;;7.00;99.90;;;;;;5052542;28;20053;-81
2023/01/05 04:02:33;;;;;;;3.40;3.10;;;7.00;99.90;;;;;;5050990;28;20029;-80
2023/01/05 04:04:59;;;;;;;4.00;3.38;;;7.00;99.90;;;;;;5051277;28;20557;-79
2023/01/05 04:07:24;;;;;;;4.40;3.25;;;7.00;99.90;;;;;;5052371;28;20064;-78
2023/01/05 04:09:50;;;;;;;5.85;3.25;;;7.00;99.90;;;;;;5051097;28;20025;-79
2023/01/05 04:12:15;;;;;;;3.63;3.10;;;7.00;99.90;;;;;;5052354;28;20490;-80
2023/01/05 04:14:41;;;;;;;3.97;3.03;;;7.00;99.90;;;;;;5052136;28;20032;-81
2023/01/05 04:17:06;;;;;;;4.13;3.20;;;7.00;99.90;;;;;;5052293;28;20025;-81
2023/01/05 04:19:32;;;;;;;4.28;3.33;;;7.00;99.90;;;;;;5052217;28;20389;-80
2023/01/05 04:21:58;;;;;;;4.60;3.90;;;7.00;99.90;;;;;;5050897;28;20033;-81
2023/01/05 04:24:23;;;;;;;4.97;2.58;;;7.00;99.90;;;;;;5052019;28;20018;-80
2023/01/05 04:26:49;;;;;;;2.85;2.60;;;7.00;99.90;;;;;;5050974;28;20045;-80
2023/01/05 04:29:14;;;;;;;5.13;3.03;;;7.00;99.90;;;;;;5051847;28;20017;-79
2023/01/05 04:31:40;;;;;;;4.20;3.13;;;7.00;99.90;;;;;;5050749;28;20052;-81
2023/01/05 04:34:06;;;;;;;4.13;2.47;;;7.00;99.90;;;;;;5050764;28;20552;-79
2023/01/05 04:36:31;;;;;;;3.70;2.67;;;7.10;99.90;;;;;;5051927;28;20035;-80
2023/01/05 04:38:57;;;;;;;3.97;2.80;;;7.10;99.90;;;;;;5050614;28;20017;-79
2023/01/05 04:41:23;;;;;;;2.90;2.60;;;7.10;99.90;;;;;;5102849;27;20058;-78
2023/01/05 04:43:48;;;;;;;4.38;2.92;;;7.10;99.90;;;;;;5156856;27;20079;-81
2023/01/05 04:46:14;;;;;;;3.30;3.00;;;7.10;99.90;;;;;;5155474;27;20011;-78
2023/01/05 04:48:39;;;;;;;3.35;3.05;;;7.10;99.90;;;;;;5156714;27;20468;-78
2023/01/05 04:51:05;;;;;;;4.18;3.22;;;7.10;99.90;;;;;;5156754;27;20106;-79
2023/01/05 04:53:32;;;;;;;5.95;3.78;;;7.10;99.90;;;;;;5156657;27;20034;-79
2023/01/05 04:55:58;;;;;;;4.82;3.20;;;7.10;99.90;;;;;;5156697;27;20015;-81
2023/01/05 04:58:23;;;;;;;3.78;2.72;;;7.10;99.90;;;;;;5155243;27;20098;-78
2023/01/05 05:00:52;;;;;;;3.70;3.30;;;7.10;99.90;;;;;;5156546;27;20015;-78
2023/01/05 05:03:17;;;;;;;3.88;3.00;;;7.10;99.90;;;;;;5155250;27;20475;-80
2023/01/05 05:05:43;;;;;;;3.75;3.08;;;7.10;99.90;;;;;;5155084;27;20029;-79
2023/01/05 05:08:09;;;;;;;4.53;3.30;;;7.10;99.90;;;;;;5156410;27;20463;-78
2023/01/05 05:10:34;;;;;;;3.97;2.78;;;7.10;99.90;;;;;;5154974;27;20018;-78
2023/01/05 05:13:00;;;;;;;4.53;2.90;;;7.10;99.90;;;;;;5156155;27;20439;-79
2023/01/05 05:15:25;;;;;;;3.13;2.90;;;7.10;99.90;;;;;;5156118;27;20015;-78
2023/01/05 05:17:51;;;;;;;3.00;2.72;;;7.10;99.90;;;;;;5156235;27;20460;-79
2023/01/05 05:20:17;;;;;;;3.10;2.80;;;7.10;99.90;;;;;;5154787;27;20019;-80
2023/01/05 05:22:42;;;;;;;4.40;3.00;;;7.10;99.90;;;;;;5154659;27;20073;-80
2023/01/05 05:25:08;;;;;;;3.28;3.03;;;7.10;99.90;;;;;;5154710;27;20460;-81
2023/01/05 05:27:34;;;;;;;6.07;3.88;;;7.10;99.90;;;;;;5155973;27;20027;-80
2023/01/05 05:29:59;;;;;;;5.22;3.05;;;7.10;99.90;;;;;;5154753;27;20032;-79
2023/01/05 05:32:25;;;;;;;3.88;3.00;;;7.10;99.90;;;;;;5154744;27;20376;-79
2023/01/05 05:34:50;;;;;;;4.97;3.10;;;7.10;99.90;;;;;;5155787;27;20015;-79
2023/01/05 05:37:16;;;;;;;4.15;3.03;;;7.10;99.90;;;;;;5155794;27;20067;-79
2023/01/05 05:39:41;;;;;;;4.65;3.65;;;7.10;99.90;;;;;;5155770;27;20019;-80
2023/01/05 05:42:07;;;;;;;3.97;3.28;;;7.10;99.90;;;;;;5068463;27;20049;-78
2023/01/05 05:44:33;;;;;;;3.67;3.03;;;7.10;99.90;;;;;;5050882;28;20411;-78
2023/01/05 05:46:58;;;;;;;9.13;3.58;;;7.10;99.90;;;;;;5051111;28;20028;-79
2023/01/05 05:49:24;;;;;;;6.75;3.85;;;7.10;99.90;;;;;;5049406;28;20389;-80
2023/01/05 05:51:50;;;;;;;5.00;4.50;;;7.10;99.90;;;;;;5050729;28;20037;-79
2023/01/05 05:54:15;;;;;;;7.75;6.20;;;7.00;99.90;;;;;;5050586;28;20057;-80
2023/01/05 05:56:41;;;;;;;1.70;1.30;;;6.90;99.90;;;;;;5049356;28;20078;-81
2023/01/05 05:59:07;;;;;;;1.30;1.20;;;6.50;99.90;;;;;;5049320;28;20112;-79
2023/01/05 06:01:32;;;;;;;3.58;1.35;;;6.20;99.90;;;;;;5049339;28;20033;-79
2023/01/05 06:03:58;;;;;;;2.78;1.30;;;6.20;99.90;;;;;;5050487;28;20021;-78
2023/01/05 06:06:23;;;;;;;1.77;1.67;;;6.10;99.90;;;;;;5050682;28;20066;-79
2023/01/05 06:08:49;;;;;;;1.60;1.50;;;6.10;99.90;;;;;;5049386;28;20047;-78
2023/01/05 06:11:14;;;;;;;13.70;1.83;;;6.10;99.90;;;;;;5050559;28;20409;-80
2023/01/05 06:13:41;;;;;;;1.27;1.17;;;6.10;99.90;;;;;;5050621;28;20423;-78
2023/01/05 06:16:06;;;;;;;1.35;1.25;;;6.00;99.90;;;;;;5050402;28;20021;-80
2023/01/05 06:18:32;;;;;;;2.28;1.17;;;6.00;99.90;;;;;;5049139;28;20056;-78
2023/01/05 06:20:57;;;;;;;1.38;1.27;;;6.00;99.90;;;;;;5049088;28;20018;-80
2023/01/05 06:23:23;;;;;;;1.00;1.00;;;6.00;99.90;;;;;;5050366;28;20104;-78
2023/01/05 06:25:49;;;;;;;1.20;1.08;;;6.00;99.90;;;;;;5050444;28;20017;-80
2023/01/05 06:28:14;;;;;;;0.95;0.90;;;6.00;99.90;;;;;;5049001;28;20401;-79
2023/01/05 06:30:40;;;;;;;1.83;1.17;;;5.90;99.90;;;;;;5048860;28;20059;-80
2023/01/05 06:33:05;;;;;;;1.33;1.10;;;5.90;99.90;;;;;;5048181;27;20054;-81
2023/01/05 06:35:31;;;;;;;1.30;1.20;;;5.90;99.90;;;;;;5070400;27;20028;-81
2023/01/05 06:37:56;;;;;;;1.15;0.98;;;5.80;99.90;;;;;;5135003;27;20026;-81
2023/01/05 06:40:22;;;;;;;1.00;1.00;;;5.80;99.90;;;;;;5142447;27;20023;-79
2023/01/05 06:42:48;;;;;;;1.27;0.98;;;5.80;99.90;;;;;;5049630;28;20087;-80
2023/01/05 06:45:15;;;;;;;2.42;2.17;;;5.80;99.90;;;;;;5048860;28;20104;-80
2023/01/05 06:47:41;;;;;;;2.28;1.52;;;5.80;99.90;;;;;;5046810;28;20021;-78
2023/01/05 06:50:07;;;;;;;23.50;13.48;;;5.70;99.90;;;;;;5049273;28;20570;-79
2023/01/05 06:52:38;;;;;;;7.32;5.30;;;5.70;99.90;;;;;;5047997;28;20409;-79
2023/01/05 06:55:06;;;;;;;6.70;3.97;;;5.70;99.90;;;;;;5052392;28;20030;-78
2023/01/05 06:57:32;;;;;;;2.30;1.35;;;5.70;99.90;;;;;;5049955;28;20548;-80
2023/01/05 06:59:58;;;;;;;1.58;1.10;;;5.70;99.90;;;;;;5050963;28;20112;-78
2023/01/05 07:02:23;;;;;;;4.68;1.83;;;5.70;99.90;;;;;;5052869;28;20507;-80
2023/01/05 07:04:49;;;;;;;1.70;1.60;;;5.70;99.90;;;;;;5049321;28;20013;-79
2023/01/05 07:07:15;;;;;;;2.33;1.40;;;5.70;99.90;;;;;;5047775;28;20128;-78
2023/01/05 07:09:41;;;;;;;1.67;1.50;;;5.70;99.90;;;;;;5047654;28;20040;-78
2023/01/05 07:12:07;;;;;;;1.95;1.42;;;5.70;99.90;;;;;;5048424;28;20394;-79
2023/01/05 07:14:32;;;;;;;1.58;1.33;;;5.70;99.90;;;;;;5047245;28;20062;-79
2023/01/05 07:16:58;;;;;;;2.10;1.00;;;5.70;99.90;;;;;;5046894;28;20049;-79
2023/01/05 07:19:23;;;;;;;1.08;0.95;;;5.70;99.90;;;;;;5047376;28;20028;-80
2023/01/05 07:21:49;;;;;;;1.17;0.93;;;5.80;99.90;;;;;;5049323;28;20098;-81
2023/01/05 07:24:15;;;;;;;1.50;1.30;;;5.80;99.90;;;;;;5049686;28;20021;-78
2023/01/05 07:26:40;;;;;;;1.40;1.30;;;5.80;99.90;;;;;;5049121;28;20039;-78
2023/01/05 07:29:06;;;;;;;1.23;1.13;;;5.80;99.90;;;;;;5049548;28;20502;-80
2023/01/05 07:31:31;;;;;;;1.70;1.25;;;5.80;99.90;;;;;;5051175;28;20025;-80
2023/01/05 07:33:57;;;;;;;3.33;1.70;;;5.80;99.90;;;;;;5053081;28;20029;-79
2023/01/05 07:36:23;;;;;;;4.95;2.45;;;5.90;99.90;;;;;;5053018;28;20029;-80
2023/01/05 07:38:48;;;;;;;1.88;1.60;;;5.90;99.90;;;;;;5051876;28;20036;-80
2023/01/05 07:41:14;;;;;;;2.75;2.15;;;5.90;99.90;;;;;;5104368;27;20022;-79
2023/01/05 07:43:40;;;;;;;2.13;1.90;;;6.00;99.90;;;;;;5158086;27;20487;-81
2023/01/05 07:46:06;;;;;;;4.38;2.55;;;6.00;99.90;;;;;;5156774;27;20023;-79
2023/01/05 07:48:31;;;;;;;3.03;1.67;;;6.00;99.90;;;;;;5158178;27;20030;-79
2023/01/05 07:51:03;;;;;;;2.42;1.58;;;6.10;99.90;;;;;;5158186;27;20021;-79
2023/01/05 07:53:29;;;;;;;2.63;1.80;;;6.10;99.90;;;;;;5158074;27;20019;-79
2023/01/05 07:55:57;;;;;;;5.45;1.92;;;6.10;99.90;;;;;;5156825;27;20006;-79
2023/01/05 07:58:23;;;;;;;2.83;1.70;;;6.20;99.90;;;;;;5156670;27;20046;-79
2023/01/05 08:00:49;;;;;;;1.50;1.40;;;6.20;99.90;;;;;;5157994;27;20037;-79
2023/01/05 08:03:15;;;;;;;4.43;1.25;;;6.30;99.90;;;;;;5157814;27;20431;-80
2023/01/05 08:05:40;;;;;;;2.28;1.70;;;6.30;99.90;;;;;;5157364;27;20069;-81
2023/01/05 08:08:06;;;;;;;3.88;2.00;;;6.40;99.90;;;;;;5157537;27;20026;-81
2023/01/05 08:10:31;;;;;;;2.65;1.58;;;6.40;99.90;;;;;;5157797;27;20023;-79
2023/01/05 08:15:47;;;;;;;2.83;1.30;;;6.40;99.90;;;;;;5158008;27;20033;-81
2023/01/05 08:18:12;;;;;;;4.05;1.83;;;6.50;99.90;;;;;;5157543;27;20023;-80
2023/01/05 08:20:38;;;;;;;5.30;2.55;;;6.40;99.90;;;;;;5156329;27;20058;-80
2023/01/05 08:23:03;;;;;;;3.00;1.63;;;6.50;99.90;;;;;;5155991;27;20037;-79
2023/01/05 08:25:29;;;;;;;1.77;1.67;;;6.40;99.90;;;;;;5156266;27;20029;-79
2023/01/05 08:27:55;;;;;;;1.83;1.73;;;6.40;99.90;;;;;;5157335;27;20027;-79
2023/01/05 08:30:20;;;;;;;4.38;2.35;;;6.40;99.90;;;;;;5155898;27;20487;-81
2023/01/05 08:32:46;;;;;;;3.80;1.58;;;6.50;99.90;;;;;;5157235;27;20027;-79
2023/01/05 08:35:11;;;;;;;2.15;1.95;;;6.50;99.90;;;;;;5157259;27;20014;-80
2023/01/05 08:37:38;;;;;;;7.05;3.17;;;6.50;99.90;;;;;;5157220;27;20022;-79
2023/01/05 08:40:04;;;;;;;6.45;3.95;;;6.50;99.90;;;;;;5154980;27;20018;-81
2023/01/05 08:42:30;;;;;;;16.00;8.68;;;6.50;99.90;;;;;;5050465;28;20065;-80
2023/01/05 08:44:55;;;;;;;95.03;39.17;;;6.50;99.90;;;;;;5052104;28;20497;-79
2023/01/05 08:47:21;;;;;;;97.72;40.72;;;6.50;99.90;;;;;;5050534;28;20427;-79
2023/01/05 08:49:48;;;;;;;79.45;33.80;;;6.50;99.90;;;;;;5051893;28;20057;-81
2023/01/05 08:52:14;;;;;;;36.17;16.02;;;6.50;99.90;;;;;;5050568;28;20021;-80
2023/01/05 08:54:39;;;;;;;133.93;57.47;;;6.50;99.90;;;;;;5050692;28;20021;-79
2023/01/05 08:57:05;;;;;;;62.97;29.23;;;6.50;99.90;;;;;;5051599;28;20434;-79
2023/01/05 08:59:30;;;;;;;37.45;19.23;;;6.50;99.90;;;;;;5050500;28;20092;-81
2023/01/05 09:01:56;;;;;;;44.38;18.65;;;6.50;99.90;;;;;;5049466;28;20044;-81
2023/01/05 09:04:22;;;;;;;42.17;20.50;;;6.50;99.90;;;;;;5051481;28;20025;-81
2023/01/05 09:06:48;;;;;;;25.02;13.00;;;6.50;99.90;;;;;;5051657;28;20025;-79
2023/01/05 09:09:14;;;;;;;7.50;4.18;;;6.50;99.90;;;;;;5050443;28;20462;-80
2023/01/05 09:11:39;;;;;;;14.98;7.45;;;6.50;99.90;;;;;;5050162;28;20052;-81
2023/01/05 09:14:05;;;;;;;23.10;11.18;;;6.60;99.90;;;;;;5051524;28;20028;-81
2023/01/05 09:16:33;;;;;;;21.85;12.35;;;6.60;99.90;;;;;;5050710;28;20021;-80
2023/01/05 09:19:01;;;;;;;29.77;9.90;;;6.60;99.90;;;;;;5050080;28;20059;-81
2023/01/05 09:21:27;;;;;;;17.30;8.63;;;6.60;99.90;;;;;;5051411;28;20116;-81
2023/01/05 09:23:53;;;;;;;14.68;7.68;;;6.70;99.90;;;;;;5051222;28;20450;-79
2023/01/05 09:26:18;;;;;;;12.60;7.45;;;6.70;99.90;;;;;;5117537;27;20027;-81
2023/01/05 09:28:44;;;;;;;15.50;8.07;;;6.80;99.90;;;;;;5154826;27;20421;-80
2023/01/05 09:31:20;;;;;;;65.22;24.27;;;6.80;99.90;;;;;;5154874;27;20045;-80
2023/01/05 09:33:46;;;;;;;89.25;29.33;;;6.90;99.90;;;;;;5155834;27;20014;-80
2023/01/05 09:36:13;;;;;;;64.07;22.30;;;6.90;99.90;;;;;;5129844;27;20108;-79
2023/01/05 09:38:39;;;;;;;107.28;37.38;;;6.90;99.90;;;;;;5050955;28;20053;-80
2023/01/05 09:41:27;;;;;;;70.53;26.95;;;7.00;99.90;;;;;;5049609;28;20057;-81
2023/01/05 09:43:58;;;;;;;150.45;51.10;;;7.00;99.90;;;;;;5049618;28;20140;-80
2023/01/05 09:46:32;;;;;;;76.13;26.13;;;7.00;99.90;;;;;;5051043;28;20028;-80
2023/01/05 09:49:01;;;;;;;93.55;33.58;;;7.00;99.90;;;;;;5050986;28;20408;-80
2023/01/05 09:51:28;;;;;;;59.67;21.77;;;7.00;99.90;;;;;;5051182;28;20029;-81
2023/01/05 09:53:54;;;;;;;103.18;34.97;;;7.10;99.90;;;;;;5049392;27;20033;-80
2023/01/05 09:56:35;;;;;;;91.43;30.90;;;7.10;99.90;;;;;;5048922;28;20021;-81
2023/01/05 09:59:29;;;;;;;133.75;45.67;;;7.10;99.90;;;;;;5049401;27;20025;-81
2023/01/05 10:01:59;;;;;;;81.95;27.52;;;7.20;99.90;;;;;;5049842;28;20108;-80
2023/01/05 10:04:28;;;;;;;80.30;27.02;;;7.20;99.90;;;;;;5050600;28;20117;-80
2023/01/05 10:07:04;;;;;;;120.60;41.83;;;7.20;99.90;;;;;;5048301;28;20433;-80
2023/01/05 10:09:34;;;;;;;103.07;34.17;;;7.20;99.90;;;;;;5049546;28;20388;-81
2023/01/05 10:14:59;;;;;;;40.45;13.38;;;7.20;99.90;;;;;;5050923;28;20040;-80
2023/01/05 10:17:26;;;;;;;;;;;7.10;99.90;;;;;;5049801;28;20029;-81
2023/01/05 10:19:52;;;;;;;71.65;23.80;;;7.10;99.90;;;;;;5049296;28;19905;-81
2023/01/05 10:22:31;;;;;;;52.20;15.60;;;7.10;99.90;;;;;;5050510;28;20081;-81
2023/01/05 10:25:18;;;;;;;78.13;26.23;;;7.10;99.90;;;;;;5050598;28;20378;-79
2023/01/05 10:27:55;;;;;;;84.40;27.00;;;7.20;99.90;;;;;;5048927;28;20021;-80
2023/01/05 10:30:22;;;;;;;96.43;35.85;;;7.20;99.90;;;;;;5050475;28;20036;-81
2023/01/05 10:33:05;;;;;;;68.88;23.77;;;7.30;99.90;;;;;;5050363;28;20112;-79
2023/01/05 10:35:46;;;;;;;73.00;25.90;;;7.30;99.90;;;;;;5050562;28;20017;-80
2023/01/05 10:38:39;;;;;;;76.43;28.27;;;7.30;99.90;;;;;;5049024;28;20021;-79
2023/01/05 10:41:28;;;;;;;61.40;25.80;;;7.40;99.90;;;;;;5099206;27;20023;-81
2023/01/05 10:44:29;;;;;;;43.75;18.63;;;7.40;99.90;;;;;;5153513;27;20058;-80
2023/01/05 10:46:55;;;;;;;43.30;20.73;;;7.50;99.90;;;;;;5153840;27;20022;-81
2023/01/05 10:49:28;;;;;;;35.55;21.08;;;7.50;99.90;;;;;;5154908;27;20019;-79
2023/01/05 10:51:59;;;;;;;48.40;23.13;;;7.50;99.90;;;;;;5155333;27;20026;-81
2023/01/05 10:54:29;;;;;;;28.95;13.95;;;7.70;99.90;;;;;;5153658;27;20019;-79
2023/01/05 10:56:54;;;;;;;30.50;15.70;;;7.70;99.90;;;;;;5153683;27;20022;-80
2023/01/05 10:59:20;;;;;;;24.95;13.48;;;7.80;99.90;;;;;;5153643;27;20079;-80
2023/01/05 11:01:48;;;;;;;23.50;16.02;;;7.80;99.90;;;;;;5153465;27;20075;-80
2023/01/05 11:04:21;;;;;;;43.80;22.13;;;7.80;99.90;;;;;;5153548;27;20368;-79
2023/01/05 11:06:46;;;;;;;35.83;18.90;;;7.80;99.90;;;;;;5154839;27;20019;-80
2023/01/05 11:09:23;;;;;;;80.15;40.72;;;7.90;99.90;;;;;;5154503;27;20071;-79
2023/01/05 11:12:00;;;;;;;48.90;24.35;;;8.00;99.90;;;;;;5153375;27;20535;-79
2023/01/05 11:14:29;;;;;;;45.55;21.48;;;8.00;99.90;;;;;;5153352;27;20029;-79
2023/01/05 11:17:02;;;;;;;42.78;18.67;;;8.10;99.90;;;;;;5154793;27;20037;-80
2023/01/05 11:19:40;;;;;;;51.65;19.27;;;8.10;99.90;;;;;;5153365;27;20023;-79
2023/01/05 11:22:28;;;;;;;19.15;9.10;;;8.10;99.90;;;;;;5153357;27;20023;-79
2023/01/05 11:25:11;;;;;;;18.23;8.85;;;8.20;99.90;;;;;;5154658;27;20035;-79
2023/01/05 11:27:37;;;;;;;30.90;10.90;;;8.20;99.90;;;;;;5154786;27;20110;-80
2023/01/05 11:30:15;;;;;;;29.45;12.27;;;8.20;99.90;;;;;;5154591;27;20046;-79
2023/01/05 11:32:42;;;;;;;15.77;8.52;;;8.20;99.90;;;;;;5154484;27;20045;-80
2023/01/05 11:35:30;;;;;;;17.83;8.13;;;8.20;99.90;;;;;;5154354;27;20379;-81
2023/01/05 11:37:56;;;;;;;17.05;10.23;;;8.20;99.90;;;;;;5154555;27;20102;-79
2023/01/05 11:40:29;;;;;;;5.00;3.38;;;8.20;99.90;;;;;;5157079;27;20501;-80
2023/01/05 11:42:55;;;;;;;14.25;6.53;;;8.20;99.90;;;;;;5158112;27;20153;-80
2023/01/05 11:45:23;;;;;;;12.02;5.50;;;8.20;99.90;;;;;;5156811;27;20036;-79
2023/01/05 11:47:54;;;;;;;12.57;6.57;;;8.20;99.90;;;;;;5158305;27;20047;-80
2023/01/05 11:50:23;;;;;;;5.85;2.90;;;8.20;99.90;;;;;;5156705;27;20106;-79
2023/01/05 11:52:54;;;;;;;8.73;4.80;;;8.20;99.90;;;;;;5157064;27;20031;-80
2023/01/05 11:55:22;;;;;;;7.38;5.22;;;8.20;99.90;;;;;;5156608;27;20063;-80
2023/01/05 11:57:50;;;;;;;6.13;3.97;;;8.30;99.90;;;;;;5157817;27;20031;-80
2023/01/05 12:00:29;;;;;;;5.45;2.95;;;8.30;99.90;;;;;;5156496;27;20019;-81
2023/01/05 12:03:33;;;;;;;1.60;1.33;;;8.40;99.90;;;;;;5157885;27;20391;-80
2023/01/05 12:06:03;;;;;;;;;;;8.40;99.90;;;;;;5156889;27;20026;-80
2023/01/05 12:08:53;;;;;;;3.65;2.67;;;8.40;99.90;;;;;;5156494;27;19903;-81
2023/01/05 12:11:22;;;;;;;4.22;1.95;;;8.40;99.90;;;;;;5157854;27;20403;-81
2023/01/05 12:13:51;;;;;;;2.00;1.88;;;8.40;99.90;;;;;;5157666;27;20018;-79
2023/01/05 12:16:35;;;;;;;13.15;4.25;;;8.30;99.90;;;;;;5157871;27;20107;-80
2023/01/05 12:19:09;;;;;;;3.70;1.80;;;8.30;99.90;;;;;;5157551;27;20022;-79
2023/01/05 12:21:44;;;;;;;8.80;3.60;;;8.20;99.90;;;;;;5157478;27;20425;-79
2023/01/05 12:24:36;;;;;;;5.80;2.20;;;8.20;99.90;;;;;;5157424;27;20085;-80
2023/01/05 12:27:31;;;;;;;4.88;2.47;;;8.20;99.90;;;;;;5156486;27;20535;-79
2023/01/05 12:30:12;;;;;;;2.17;1.90;;;8.00;99.90;;;;;;5157487;27;20101;-80
2023/01/05 12:33:06;;;;;;;3.08;2.10;;;7.90;99.90;;;;;;5080609;27;20029;-80
2023/01/05 12:35:51;;;;;;;3.05;1.95;;;7.90;99.90;;;;;;5050897;28;20136;-80
2023/01/05 12:38:48;;;;;;;2.67;1.45;;;7.80;99.90;;;;;;5050943;28;20036;-79
2023/01/05 12:41:38;;;;;;;3.28;1.85;;;7.80;99.90;;;;;;5111604;27;20068;-81
2023/01/05 12:44:31;;;;;;;3.28;1.70;;;7.80;99.90;;;;;;5157077;27;20030;-80
2023/01/05 12:47:05;;;;;;;2.75;2.38;;;7.80;99.90;;;;;;5155773;27;20023;-81
2023/01/05 12:49:47;;;;;;;2.40;2.15;;;7.70;99.90;;;;;;5155579;27;20064;-81
2023/01/05 12:52:45;;;;;;;4.70;2.90;;;7.60;99.90;;;;;;5156913;27;20432;-80
2023/01/05 12:55:13;;;;;;;1.92;1.45;;;7.50;99.90;;;;;;5155346;27;20450;-81
2023/01/05 12:57:44;;;;;;;1.58;1.40;;;6.90;99.90;;;;;;5156822;27;20390;-81
2023/01/05 13:00:14;;;;;;;1.15;1.08;;;6.40;99.90;;;;;;5155423;27;20019;-81
2023/01/05 13:03:00;;;;;;;1.48;1.10;;;6.00;99.90;;;;;;5155240;27;20039;-81
2023/01/05 13:05:49;;;;;;;2.08;1.45;;;5.70;99.90;;;;;;5156636;27;20023;-79
2023/01/05 13:08:21;;;;;;;2.15;1.13;;;5.60;99.90;;;;;;5156527;27;20056;-80
2023/01/05 13:10:56;;;;;;;0.90;0.90;;;5.40;99.90;;;;;;5155158;27;20391;-79
2023/01/05 13:13:35;;;;;;;2.50;1.33;;;5.40;99.90;;;;;;5156407;27;20019;-80
2023/01/05 13:16:07;;;;;;;2.75;1.48;;;5.40;99.90;;;;;;5087921;27;20021;-80
2023/01/05 13:18:36;;;;;;;1.52;1.42;;;5.40;99.90;;;;;;5051554;28;20040;-79
2023/01/05 13:21:04;;;;;;;1.50;1.40;;;5.40;99.90;;;;;;5051317;28;20032;-79
2023/01/05 13:23:39;;;;;;;2.17;1.40;;;5.30;99.90;;;;;;5049405;28;20040;-80
2023/01/05 13:26:09;;;;;;;1.73;1.15;;;5.20;99.90;;;;;;5051227;28;20017;-79
2023/01/05 13:28:35;;;;;;;1.48;1.33;;;5.20;99.90;;;;;;5050100;28;20403;-79
2023/01/05 13:31:23;;;;;;;1.23;1.13;;;5.10;99.90;;;;;;5051188;28;20017;-79
2023/01/05 13:33:51;;;;;;;1.90;1.15;;;5.10;99.90;;;;;;5050157;28;20017;-78
2023/01/05 13:37:02;;;;;;;1.48;1.38;;;5.00;99.90;;;;;;5120093;27;20101;-78
2023/01/05 13:39:43;;;;;;;1.60;1.50;;;5.00;99.90;;;;;;5131960;27;20399;-79
2023/01/05 13:42:46;;;;;;;20.40;7.65;;;5.00;99.90;;;;;;5155541;27;20395;-79
2023/01/05 13:45:30;;;;;;;15.75;6.45;;;5.10;99.90;;;;;;5155856;27;20523;-79
2023/01/05 13:48:14;;;;;;;6.15;2.42;;;5.10;99.90;;;;;;5155888;27;20018;-78